Time;durP1;ratioP1;P1;durP2;ratioP2;P2;SDS_P1;SDS_P2;PMS_P1;PMS_P2;Temp;Humidity;BMP_temperature;BMP_pressure;BME280_temperature;BME280_humidity;BME280_pressure;Samples;Min_cycle;Max_cycle;Signal;HPM_P1;HPM_P2
2021/04/20 00:01:19;;;;;;;4.88;2.05;;;6.20;99.90;;;;;;5053753;28;20437;-46
2021/04/20 00:03:45;;;;;;;5.47;2.03;;;6.20;99.90;;;;;;5053732;28;20039;-50
2021/04/20 00:06:11;;;;;;;9.90;2.83;;;6.10;99.90;;;;;;5053554;28;20514;-49
2021/04/20 00:08:37;;;;;;;10.23;2.47;;;6.00;99.90;;;;;;5052483;28;20037;-48
2021/04/20 00:11:03;;;;;;;5.15;2.35;;;5.90;99.90;;;;;;5054030;28;20064;-47
2021/04/20 00:13:29;;;;;;;3.08;2.15;;;5.90;99.90;;;;;;5055122;28;20032;-50
2021/04/20 00:15:54;;;;;;;5.88;2.13;;;5.90;99.90;;;;;;5055291;28;20029;-46
2021/04/20 00:18:20;;;;;;;5.25;2.47;;;5.80;99.90;;;;;;5055176;28;20060;-48
2021/04/20 00:20:46;;;;;;;4.50;2.38;;;5.70;99.90;;;;;;5055458;28;20037;-47
2021/04/20 00:23:11;;;;;;;7.80;3.08;;;5.60;99.90;;;;;;5052378;28;20369;-47
2021/04/20 00:25:37;;;;;;;7.72;2.35;;;5.60;99.90;;;;;;5053914;28;20361;-46
2021/04/20 00:28:02;;;;;;;5.68;2.30;;;5.50;99.90;;;;;;5054851;28;20021;-47
2021/04/20 00:30:29;;;;;;;10.20;2.78;;;5.50;99.90;;;;;;5055045;28;20426;-46
2021/04/20 00:32:54;;;;;;;4.80;2.50;;;5.40;99.90;;;;;;5054679;28;20037;-46
2021/04/20 00:35:20;;;;;;;7.22;2.28;;;5.30;99.90;;;;;;5054950;28;20398;-47
2021/04/20 00:37:46;;;;;;;2.95;2.13;;;5.30;99.90;;;;;;5053687;28;20043;-46
2021/04/20 00:40:14;;;;;;;5.40;2.40;;;5.30;99.90;;;;;;5054565;28;20060;-50
2021/04/20 00:42:53;;;;;;;9.15;3.17;;;5.20;99.90;;;;;;5054187;28;20021;-50
2021/04/20 00:45:21;;;;;;;5.78;2.40;;;5.20;99.90;;;;;;5036019;28;20427;-47
2021/04/20 00:47:47;;;;;;;6.68;2.55;;;5.20;99.90;;;;;;5034697;28;20362;-48
2021/04/20 00:50:14;;;;;;;6.22;2.00;;;5.10;99.90;;;;;;5034519;28;20032;-48
2021/04/20 00:52:40;;;;;;;7.57;2.40;;;5.00;99.90;;;;;;5052545;28;20028;-47
2021/04/20 00:55:06;;;;;;;5.10;2.95;;;5.10;99.90;;;;;;5054403;28;20025;-48
2021/04/20 00:57:32;;;;;;;5.03;2.20;;;5.10;99.90;;;;;;5054412;28;20514;-49
2021/04/20 00:59:58;;;;;;;8.13;2.40;;;5.10;99.90;;;;;;5054314;28;20025;-46
2021/04/20 01:02:24;;;;;;;4.80;2.80;;;5.20;99.90;;;;;;5054362;28;20028;-48
2021/04/20 01:04:50;;;;;;;6.13;2.83;;;5.10;99.90;;;;;;5054343;28;20017;-46
2021/04/20 01:07:16;;;;;;;9.05;2.90;;;5.10;99.90;;;;;;5051843;28;20017;-47
2021/04/20 01:09:42;;;;;;;18.27;4.30;;;5.00;99.90;;;;;;5054294;28;20523;-46
2021/04/20 01:12:08;;;;;;;11.43;3.92;;;4.90;99.90;;;;;;5054254;28;20035;-50
2021/04/20 01:14:35;;;;;;;9.02;3.35;;;4.90;99.90;;;;;;5054146;28;20396;-48
2021/04/20 01:17:01;;;;;;;5.65;3.22;;;4.80;99.90;;;;;;5054184;28;20060;-49
2021/04/20 01:19:29;;;;;;;11.00;2.63;;;4.70;99.90;;;;;;5053905;28;20444;-45
2021/04/20 01:21:56;;;;;;;10.35;3.38;;;4.70;99.90;;;;;;5053001;28;20040;-49
2021/04/20 01:24:26;;;;;;;6.28;2.47;;;4.60;99.90;;;;;;5053713;28;20083;-47
2021/04/20 01:26:52;;;;;;;7.50;2.90;;;4.50;99.90;;;;;;5052663;28;20393;-47
2021/04/20 01:29:20;;;;;;;4.57;2.53;;;4.50;99.90;;;;;;5053732;28;20029;-48
2021/04/20 01:31:46;;;;;;;10.65;3.67;;;4.40;99.90;;;;;;5053935;28;20025;-50
2021/04/20 01:34:12;;;;;;;4.05;2.47;;;4.40;99.90;;;;;;5053579;28;20189;-50
2021/04/20 01:36:38;;;;;;;7.30;3.53;;;4.30;99.90;;;;;;5052883;28;20053;-46
2021/04/20 01:39:06;;;;;;;6.18;2.60;;;4.30;99.90;;;;;;5053491;28;20103;-49
2021/04/20 01:41:33;;;;;;;9.63;2.45;;;4.30;99.90;;;;;;5053431;28;20049;-48
2021/04/20 01:43:59;;;;;;;5.88;2.30;;;4.20;99.90;;;;;;5045972;28;20018;-48
2021/04/20 01:46:25;;;;;;;6.93;2.45;;;4.20;99.90;;;;;;5033607;28;20028;-49
2021/04/20 01:48:51;;;;;;;5.63;2.42;;;4.10;99.90;;;;;;5032219;28;20028;-49
2021/04/20 01:51:18;;;;;;;5.95;2.35;;;4.20;99.90;;;;;;5040340;28;20067;-48
2021/04/20 01:53:44;;;;;;;6.22;2.50;;;4.20;99.90;;;;;;5052419;28;20029;-47
2021/04/20 01:56:12;;;;;;;5.93;2.30;;;4.10;99.90;;;;;;5053317;28;20109;-47
2021/04/20 01:58:40;;;;;;;4.43;2.17;;;4.00;99.90;;;;;;5053287;28;20037;-46
2021/04/20 02:01:14;;;;;;;11.50;3.13;;;4.00;99.90;;;;;;5053026;28;20404;-48
2021/04/20 02:03:44;;;;;;;7.70;2.85;;;3.90;99.90;;;;;;5053156;28;20025;-49
2021/04/20 02:06:11;;;;;;;11.20;2.83;;;3.90;99.90;;;;;;5052895;28;20021;-49
2021/04/20 02:08:37;;;;;;;8.13;2.50;;;3.90;99.90;;;;;;5052547;28;20477;-50
2021/04/20 02:11:04;;;;;;;4.78;2.50;;;3.90;99.90;;;;;;5053170;28;20033;-48
2021/04/20 02:13:30;;;;;;;5.07;2.53;;;3.90;99.90;;;;;;5052970;28;20364;-48
2021/04/20 02:15:56;;;;;;;6.53;2.75;;;3.90;99.90;;;;;;5052970;28;20111;-47
2021/04/20 02:18:25;;;;;;;4.93;2.58;;;3.90;99.90;;;;;;5052997;28;20064;-49
2021/04/20 02:20:52;;;;;;;4.80;2.63;;;3.80;99.90;;;;;;5052833;28;20104;-48
2021/04/20 02:23:20;;;;;;;5.20;2.60;;;3.80;99.90;;;;;;5051911;28;20025;-46
2021/04/20 02:25:46;;;;;;;7.43;3.58;;;3.80;99.90;;;;;;5052708;28;20024;-51
2021/04/20 02:28:12;;;;;;;7.63;3.85;;;3.80;99.90;;;;;;5051459;28;20087;-48
2021/04/20 02:30:38;;;;;;;6.63;3.95;;;3.80;99.90;;;;;;5052620;28;20029;-45
2021/04/20 02:33:03;;;;;;;9.23;4.07;;;3.90;99.90;;;;;;5052707;28;20048;-47
2021/04/20 02:35:31;;;;;;;8.73;3.47;;;3.90;99.90;;;;;;5052595;28;20036;-46
2021/04/20 02:37:57;;;;;;;9.57;3.03;;;3.80;99.90;;;;;;5051769;28;20055;-46
2021/04/20 02:40:26;;;;;;;5.85;3.30;;;3.80;99.90;;;;;;5052173;28;20098;-48
2021/04/20 02:42:53;;;;;;;8.43;4.10;;;3.80;99.90;;;;;;5052623;28;20036;-46
2021/04/20 02:45:22;;;;;;;7.95;3.10;;;3.70;99.90;;;;;;5033814;28;20025;-50
2021/04/20 02:47:47;;;;;;;7.50;3.78;;;3.70;99.90;;;;;;5032730;28;20036;-48
2021/04/20 02:50:23;;;;;;;9.85;3.90;;;3.60;99.90;;;;;;5031275;28;20033;-47
2021/04/20 02:52:51;;;;;;;9.95;3.65;;;3.50;99.90;;;;;;5031761;28;20552;-48
2021/04/20 02:55:18;;;;;;;7.40;2.97;;;3.50;99.90;;;;;;5032270;28;20036;-49
2021/04/20 02:57:52;;;;;;;12.60;4.03;;;3.50;99.90;;;;;;5032665;28;20381;-49
2021/04/20 03:00:22;;;;;;;9.82;4.40;;;3.40;99.90;;;;;;5032311;28;20022;-47
2021/04/20 03:02:53;;;;;;;9.25;4.03;;;3.40;99.90;;;;;;5032573;28;20036;-50
2021/04/20 03:05:21;;;;;;;9.65;4.00;;;3.30;99.90;;;;;;5033627;28;20350;-48
2021/04/20 03:07:48;;;;;;;7.05;2.85;;;3.30;99.90;;;;;;5035851;28;20025;-46
2021/04/20 03:10:15;;;;;;;7.03;3.95;;;3.20;99.90;;;;;;5036267;28;20075;-46
2021/04/20 03:12:42;;;;;;;9.32;4.20;;;3.20;99.90;;;;;;5036553;28;20018;-49
2021/04/20 03:15:10;;;;;;;10.43;4.10;;;3.20;99.90;;;;;;5036433;28;20057;-50
2021/04/20 03:17:38;;;;;;;12.52;4.32;;;3.10;99.90;;;;;;5036454;28;20049;-49
2021/04/20 03:20:06;;;;;;;11.30;3.38;;;3.10;99.90;;;;;;5036341;28;20455;-51
2021/04/20 03:22:32;;;;;;;8.25;3.25;;;3.00;99.90;;;;;;5034887;28;20080;-47
2021/04/20 03:25:07;;;;;;;8.23;4.05;;;3.00;99.90;;;;;;5036168;28;20030;-47
2021/04/20 03:27:35;;;;;;;9.63;3.67;;;3.00;99.90;;;;;;5036204;28;20027;-49
2021/04/20 03:30:01;;;;;;;10.30;4.25;;;2.90;99.90;;;;;;5036229;28;20424;-49
2021/04/20 03:32:26;;;;;;;7.82;3.67;;;2.90;99.90;;;;;;5036128;28;20061;-47
2021/04/20 03:34:56;;;;;;;6.22;3.50;;;2.90;99.90;;;;;;5036155;28;20472;-47
2021/04/20 03:37:35;;;;;;;12.02;3.75;;;2.90;99.90;;;;;;5035015;28;20116;-50
2021/04/20 03:40:04;;;;;;;4.85;3.05;;;2.80;99.90;;;;;;5034537;28;20472;-45
2021/04/20 03:42:34;;;;;;;9.13;3.80;;;2.80;99.90;;;;;;5035726;28;20137;-49
2021/04/20 03:45:04;;;;;;;8.88;4.95;;;2.80;99.90;;;;;;5051903;28;20028;-49
2021/04/20 03:47:38;;;;;;;12.27;4.78;;;2.90;99.90;;;;;;5055692;28;20034;-51
2021/04/20 03:50:09;;;;;;;6.78;3.22;;;2.90;99.90;;;;;;5055681;28;20025;-47
2021/04/20 03:52:41;;;;;;;9.18;4.72;;;2.90;99.90;;;;;;5035958;28;20072;-47
2021/04/20 03:55:09;;;;;;;8.52;4.47;;;2.90;99.90;;;;;;5035745;28;20057;-49
2021/04/20 03:57:36;;;;;;;10.20;4.60;;;2.90;99.90;;;;;;5035423;28;20081;-46
2021/04/20 04:00:03;;;;;;;8.13;4.60;;;2.90;99.90;;;;;;5035762;28;20392;-47
2021/04/20 04:02:31;;;;;;;12.18;5.00;;;2.90;99.90;;;;;;5035532;28;20033;-46
2021/04/20 04:04:58;;;;;;;10.20;5.05;;;2.90;99.90;;;;;;5035538;28;20025;-46
2021/04/20 04:07:25;;;;;;;10.40;4.70;;;2.90;99.90;;;;;;5034520;28;20026;-47
2021/04/20 04:09:53;;;;;;;12.63;4.78;;;3.00;99.90;;;;;;5035437;28;20057;-51
2021/04/20 04:12:24;;;;;;;11.43;5.32;;;3.00;99.90;;;;;;5035385;28;20022;-47
2021/04/20 04:14:49;;;;;;;9.15;3.67;;;3.00;99.90;;;;;;5035236;28;20032;-49
2021/04/20 04:17:18;;;;;;;14.70;4.65;;;3.00;99.90;;;;;;5034528;28;20033;-48
2021/04/20 04:19:45;;;;;;;11.82;5.03;;;3.10;99.90;;;;;;5035293;28;20034;-47
2021/04/20 04:22:14;;;;;;;9.23;4.50;;;3.10;99.90;;;;;;5034201;28;20527;-47
2021/04/20 04:24:46;;;;;;;9.70;4.15;;;3.10;99.90;;;;;;5035114;28;20029;-47
2021/04/20 04:27:14;;;;;;;11.00;4.68;;;3.10;99.90;;;;;;5034905;28;20128;-46
2021/04/20 04:29:41;;;;;;;8.60;4.03;;;3.20;99.90;;;;;;5034961;28;20018;-47
2021/04/20 04:32:10;;;;;;;10.85;4.78;;;3.30;99.90;;;;;;5035086;28;20095;-45
2021/04/20 04:34:37;;;;;;;10.50;4.65;;;3.30;99.90;;;;;;5034878;28;20096;-48
2021/04/20 04:37:03;;;;;;;10.48;4.72;;;3.40;99.90;;;;;;5033980;28;20033;-47
2021/04/20 04:39:29;;;;;;;8.77;4.03;;;3.50;99.90;;;;;;5034896;28;20033;-46
2021/04/20 04:41:55;;;;;;;9.23;4.00;;;3.60;99.90;;;;;;5034443;28;20171;-48
2021/04/20 04:44:21;;;;;;;9.15;5.18;;;3.70;99.90;;;;;;5045420;28;20017;-48
2021/04/20 04:46:47;;;;;;;10.82;4.35;;;3.80;99.90;;;;;;5054604;28;20066;-47
2021/04/20 04:49:15;;;;;;;9.07;3.97;;;4.10;99.90;;;;;;5054817;28;20017;-45
2021/04/20 04:51:41;;;;;;;7.55;4.68;;;5.00;99.90;;;;;;5039957;28;20080;-47
2021/04/20 04:54:11;;;;;;;12.85;5.35;;;5.90;99.90;;;;;;5033352;28;20201;-53
2021/04/20 04:56:42;;;;;;;8.05;4.18;;;6.80;99.90;;;;;;5034209;28;20121;-50
2021/04/20 04:59:09;;;;;;;8.63;4.22;;;7.70;99.90;;;;;;5034552;28;20073;-53
2021/04/20 05:01:40;;;;;;;8.00;3.80;;;8.50;99.90;;;;;;5034301;28;20021;-50
2021/04/20 05:04:13;;;;;;;7.63;4.18;;;9.30;99.90;;;;;;5034500;28;20423;-52
2021/04/20 05:06:49;;;;;;;6.68;4.18;;;10.00;99.90;;;;;;5033168;28;20121;-54
2021/04/20 05:09:20;;;;;;;;;;;10.60;99.90;;;;;;5034854;28;20234;-52
2021/04/20 05:11:47;;;;;;;6.60;2.75;;;11.30;95.80;;;;;;5034169;28;19960;-51
2021/04/20 05:14:14;;;;;;;6.45;3.13;;;11.80;97.40;;;;;;5034251;28;20029;-54
2021/04/20 05:16:51;;;;;;;5.68;3.22;;;12.40;94.40;;;;;;5034038;28;20025;-52
2021/04/20 05:19:35;;;;;;;5.68;3.17;;;12.90;93.20;;;;;;5034171;28;20142;-54
2021/04/20 05:22:01;;;;;;;8.18;3.88;;;13.40;89.90;;;;;;5033024;28;20038;-50
2021/04/20 05:24:28;;;;;;;7.32;3.22;;;13.70;90.80;;;;;;5034115;28;20033;-51
2021/04/20 05:26:54;;;;;;;13.80;4.45;;;14.10;89.60;;;;;;5033938;28;20057;-52
2021/04/20 05:29:20;;;;;;;10.85;4.20;;;14.40;87.00;;;;;;5033832;28;20054;-52
2021/04/20 05:31:46;;;;;;;10.95;4.03;;;14.70;86.80;;;;;;5033665;28;20021;-52
2021/04/20 05:34:12;;;;;;;10.07;4.10;;;15.00;84.80;;;;;;5047664;28;20040;-55
2021/04/20 05:36:39;;;;;;;10.25;4.38;;;15.30;82.90;;;;;;5052530;28;20440;-51
2021/04/20 05:39:09;;;;;;;8.35;3.45;;;15.70;82.50;;;;;;5052374;28;20039;-51
2021/04/20 05:41:35;;;;;;;7.13;4.18;;;16.00;81.00;;;;;;5053170;28;20049;-54
2021/04/20 05:44:03;;;;;;;10.65;4.72;;;16.30;77.70;;;;;;5053258;28;20024;-51
2021/04/20 05:46:29;;;;;;;9.38;4.38;;;16.60;77.50;;;;;;5051729;28;20029;-55
2021/04/20 05:48:56;;;;;;;8.13;4.10;;;17.10;76.70;;;;;;5053462;28;20385;-50
2021/04/20 05:51:23;;;;;;;9.02;3.97;;;17.60;75.40;;;;;;5043812;28;20841;-53
2021/04/20 05:53:51;;;;;;;7.60;3.75;;;18.00;73.70;;;;;;5033197;28;20083;-54
2021/04/20 05:56:19;;;;;;;7.70;4.30;;;18.40;72.40;;;;;;5033291;28;20075;-53
2021/04/20 05:58:45;;;;;;;9.30;3.83;;;18.70;70.90;;;;;;5033103;28;20033;-52
2021/04/20 06:01:11;;;;;;;8.00;4.65;;;19.00;70.10;;;;;;5033157;28;20453;-50
2021/04/20 06:03:39;;;;;;;7.97;4.68;;;19.30;68.20;;;;;;5033163;28;20053;-50
2021/04/20 06:06:05;;;;;;;6.70;3.65;;;19.60;68.00;;;;;;5032749;28;20018;-55
2021/04/20 06:08:33;;;;;;;6.80;3.70;;;19.90;67.10;;;;;;5046705;28;20446;-52
2021/04/20 06:10:59;;;;;;;6.63;3.72;;;20.40;66.60;;;;;;5051174;28;20532;-53
2021/04/20 06:13:26;;;;;;;7.25;3.40;;;20.80;66.00;;;;;;5051280;28;20047;-49
2021/04/20 06:15:53;;;;;;;8.23;4.38;;;21.20;65.30;;;;;;5050709;28;20123;-51
2021/04/20 06:18:19;;;;;;;6.28;4.03;;;21.50;62.90;;;;;;5051215;28;20128;-48
2021/04/20 06:20:45;;;;;;;9.63;3.90;;;21.80;63.40;;;;;;5051819;28;20077;-51
2021/04/20 06:23:11;;;;;;;10.27;3.95;;;22.00;62.60;;;;;;5032810;28;20053;-54
2021/04/20 06:25:36;;;;;;;7.47;3.35;;;22.50;61.90;;;;;;5032816;28;20029;-53
2021/04/20 06:28:03;;;;;;;4.97;3.35;;;22.80;61.10;;;;;;5032973;28;20168;-48
2021/04/20 06:30:29;;;;;;;6.05;3.70;;;23.10;59.90;;;;;;5032541;28;20040;-53
2021/04/20 06:32:55;;;;;;;9.10;3.88;;;23.30;59.30;;;;;;5032627;28;20025;-55
2021/04/20 06:35:22;;;;;;;5.53;3.65;;;23.60;58.80;;;;;;5032866;28;20544;-50
2021/04/20 06:37:50;;;;;;;5.22;3.83;;;23.90;57.70;;;;;;5031651;28;20147;-52
2021/04/20 06:40:28;;;;;;;7.88;3.88;;;24.30;57.30;;;;;;5032152;28;20041;-52
2021/04/20 06:42:57;;;;;;;6.85;4.05;;;24.70;56.30;;;;;;5032321;28;20346;-50
2021/04/20 06:45:53;;;;;;;8.10;3.90;;;24.80;55.70;;;;;;5032513;28;20077;-51
2021/04/20 06:48:33;;;;;;;6.57;3.38;;;25.00;50.80;;;;;;5032662;28;20103;-51
2021/04/20 06:50:59;;;;;;;6.70;3.90;;;25.30;52.90;;;;;;5037745;28;20106;-55
2021/04/20 06:53:29;;;;;;;6.13;3.78;;;25.70;54.50;;;;;;5051478;28;20060;-55
2021/04/20 06:56:22;;;;;;;10.27;4.65;;;26.10;53.50;;;;;;5047266;28;20034;-55
2021/04/20 06:59:11;;;;;;;7.25;3.78;;;26.40;46.90;;;;;;5032318;28;20026;-55
2021/04/20 07:01:45;;;;;;;4.97;3.35;;;26.80;44.30;;;;;;5031911;28;20120;-53
2021/04/20 07:04:50;;;;;;;10.75;4.38;;;27.00;46.20;;;;;;5032649;28;20022;-53
2021/04/20 07:07:15;;;;;;;7.85;4.03;;;27.20;49.00;;;;;;5027427;28;20114;-53
2021/04/20 07:09:48;;;;;;;7.18;3.75;;;27.30;50.90;;;;;;5032308;28;20101;-56
2021/04/20 07:12:16;;;;;;;9.50;4.65;;;27.60;49.10;;;;;;5032184;28;20558;-49
2021/04/20 07:14:52;;;;;;;4.97;3.80;;;27.90;49.30;;;;;;5032452;28;20080;-51
2021/04/20 07:17:50;;;;;;;5.10;3.50;;;28.20;47.20;;;;;;5032283;28;20025;-52
2021/04/20 07:20:37;;;;;;;8.15;3.80;;;28.50;43.60;;;;;;5032332;28;20025;-54
2021/04/20 07:23:35;;;;;;;6.70;4.13;;;28.80;48.10;;;;;;5031221;28;20057;-54
2021/04/20 07:26:16;;;;;;;8.52;3.90;;;29.00;45.90;;;;;;5032188;28;20523;-53
2021/04/20 07:29:07;;;;;;;7.50;3.97;;;29.20;45.30;;;;;;5032074;28;20021;-52
2021/04/20 07:31:36;;;;;;;8.65;4.13;;;29.50;42.90;;;;;;5024025;28;20045;-53
2021/04/20 07:34:17;;;;;;;9.73;3.97;;;29.60;46.40;;;;;;5032104;28;20030;-53
2021/04/20 07:37:10;;;;;;;9.00;4.35;;;29.70;42.10;;;;;;5031129;28;20025;-51
2021/04/20 07:40:08;;;;;;;14.57;4.97;;;29.70;41.10;;;;;;5032217;28;20036;-53
2021/04/20 07:42:59;;;;;;;6.82;3.60;;;29.90;43.40;;;;;;5031978;28;20034;-50
2021/04/20 07:45:49;;;;;;;8.65;3.92;;;30.00;43.30;;;;;;5031835;28;20108;-51
2021/04/20 07:48:26;;;;;;;5.80;3.72;;;30.00;42.90;;;;;;5032020;28;20018;-55
2021/04/20 07:50:57;;;;;;;10.35;4.25;;;30.10;40.90;;;;;;5036458;28;20074;-55
2021/04/20 07:54:01;;;;;;;12.02;4.57;;;30.20;43.50;;;;;;5053605;28;20060;-54
2021/04/20 07:56:49;;;;;;;6.50;3.67;;;30.20;39.70;;;;;;5055558;28;20107;-55
2021/04/20 07:59:20;;;;;;;4.82;3.20;;;30.40;39.00;;;;;;5055607;28;20048;-53
2021/04/20 08:02:02;;;;;;;5.60;3.72;;;30.40;42.10;;;;;;5055134;28;20116;-52
2021/04/20 08:04:46;;;;;;;7.95;3.90;;;30.60;40.80;;;;;;5043842;28;20120;-50
2021/04/20 08:07:39;;;;;;;5.38;3.92;;;30.60;42.30;;;;;;5034643;28;20025;-54
2021/04/20 08:10:09;;;;;;;5.47;3.53;;;30.80;37.90;;;;;;5035387;28;20041;-50
2021/04/20 08:12:44;;;;;;;6.68;3.80;;;30.90;41.30;;;;;;5035176;28;20116;-53
2021/04/20 08:15:20;;;;;;;7.88;4.30;;;31.00;40.80;;;;;;5035473;28;20088;-52
2021/04/20 08:18:07;;;;;;;6.00;3.80;;;31.10;38.70;;;;;;5035024;28;20025;-52
2021/04/20 08:20:35;;;;;;;9.48;4.00;;;31.10;38.40;;;;;;5035402;28;20117;-49
2021/04/20 08:23:03;;;;;;;6.05;3.97;;;31.00;40.40;;;;;;5033884;28;20109;-47
2021/04/20 08:25:40;;;;;;;8.23;4.15;;;30.90;40.20;;;;;;5035313;28;20508;-48
2021/04/20 08:28:31;;;;;;;6.28;3.58;;;30.60;38.20;;;;;;5035035;28;20029;-53
2021/04/20 08:31:39;;;;;;;5.97;4.35;;;30.70;37.70;;;;;;5034988;28;20083;-53
2021/04/20 08:34:33;;;;;;;4.72;3.97;;;30.80;38.00;;;;;;4990936;28;20037;-49
2021/04/20 08:37:01;;;;;;;7.53;3.88;;;30.90;37.70;;;;;;5033808;28;20021;-50
2021/04/20 08:39:52;;;;;;;7.68;4.15;;;31.00;39.70;;;;;;5034992;28;20044;-48
2021/04/20 08:42:31;;;;;;;9.30;4.93;;;31.00;38.80;;;;;;5034773;28;20405;-50
2021/04/20 08:45:12;;;;;;;7.20;4.18;;;30.80;38.70;;;;;;5035115;28;20390;-49
2021/04/20 08:48:10;;;;;;;8.38;4.43;;;30.80;38.40;;;;;;5034605;28;20037;-49
2021/04/20 08:50:41;;;;;;;4.80;3.72;;;30.60;37.60;;;;;;5036966;28;20112;-48
2021/04/20 08:53:24;;;;;;;6.25;3.88;;;30.60;39.30;;;;;;5053660;28;20029;-50
2021/04/20 08:56:07;;;;;;;13.32;4.82;;;30.60;39.10;;;;;;5054478;28;20029;-49
2021/04/20 08:59:06;;;;;;;6.47;3.90;;;30.70;38.20;;;;;;5054232;28;20049;-48
2021/04/20 09:01:57;;;;;;;6.10;4.22;;;30.60;37.60;;;;;;5054524;28;20037;-48
2021/04/20 09:04:59;;;;;;;7.32;4.03;;;30.80;37.80;;;;;;5054040;28;20036;-53
2021/04/20 09:07:47;;;;;;;11.55;6.03;;;30.60;37.70;;;;;;5053317;28;20121;-47
2021/04/20 09:10:16;;;;;;;6.82;4.25;;;30.50;37.00;;;;;;5054435;28;20025;-53
2021/04/20 09:12:45;;;;;;;6.60;4.18;;;30.30;38.30;;;;;;5054173;28;20460;-48
2021/04/20 09:15:13;;;;;;;6.05;4.20;;;30.10;38.60;;;;;;5054029;28;20106;-49
2021/04/20 09:17:45;;;;;;;8.43;4.97;;;30.00;38.30;;;;;;5053991;28;20215;-47
2021/04/20 09:20:20;;;;;;;7.55;4.15;;;29.80;38.30;;;;;;5054094;28;20025;-49
2021/04/20 09:22:57;;;;;;;9.32;4.70;;;29.60;38.00;;;;;;5053025;28;20017;-50
2021/04/20 09:25:42;;;;;;;7.05;4.30;;;29.60;38.10;;;;;;5054168;28;20159;-50
2021/04/20 09:28:15;;;;;;;8.50;4.70;;;29.50;38.20;;;;;;5053837;28;20502;-52
2021/04/20 09:30:54;;;;;;;7.78;4.28;;;29.50;38.50;;;;;;5053889;28;20753;-52
2021/04/20 09:33:25;;;;;;;5.40;3.83;;;29.40;38.50;;;;;;5053712;28;20025;-49
2021/04/20 09:35:52;;;;;;;7.38;3.85;;;29.40;38.50;;;;;;5053672;28;20104;-51
2021/04/20 09:38:19;;;;;;;8.40;4.45;;;29.40;38.30;;;;;;5052658;28;20372;-50
2021/04/20 09:40:47;;;;;;;6.82;4.18;;;29.20;38.10;;;;;;5053683;28;20107;-50
2021/04/20 09:43:22;;;;;;;9.68;5.13;;;29.20;38.10;;;;;;5052266;28;20100;-50
2021/04/20 09:46:09;;;;;;;6.55;4.82;;;29.10;37.30;;;;;;5033712;28;20034;-48
2021/04/20 09:48:52;;;;;;;6.80;4.55;;;28.70;38.50;;;;;;5033207;28;20029;-51
2021/04/20 09:51:23;;;;;;;9.85;4.38;;;28.50;38.40;;;;;;5032298;28;20040;-51
2021/04/20 09:54:09;;;;;;;9.85;5.18;;;28.30;38.50;;;;;;5032262;28;20026;-48
2021/04/20 09:56:52;;;;;;;8.00;4.32;;;28.00;38.60;;;;;;5033629;28;20022;-53
2021/04/20 09:59:27;;;;;;;7.90;4.45;;;27.80;39.10;;;;;;5033459;28;20026;-50
2021/04/20 10:01:58;;;;;;;6.75;3.95;;;27.40;38.90;;;;;;5033296;28;20496;-52
2021/04/20 10:04:42;;;;;;;5.60;4.35;;;26.90;39.30;;;;;;5033290;28;20078;-49
2021/04/20 10:07:38;;;;;;;10.68;4.82;;;26.20;40.30;;;;;;5032240;28;20033;-53
2021/04/20 10:10:19;;;;;;;7.95;4.95;;;25.50;40.90;;;;;;5033169;28;20117;-53
2021/04/20 10:13:04;;;;;;;9.70;6.05;;;24.80;41.70;;;;;;5033171;28;20029;-47
2021/04/20 10:15:49;;;;;;;7.88;4.82;;;23.90;43.00;;;;;;5032490;28;20028;-49
2021/04/20 10:18:25;;;;;;;7.03;5.27;;;23.40;43.70;;;;;;5032919;28;20056;-50
2021/04/20 10:20:56;;;;;;;9.60;4.68;;;22.90;44.20;;;;;;5033066;28;20076;-49
2021/04/20 10:23:36;;;;;;;7.57;5.00;;;22.60;44.80;;;;;;5032330;28;20029;-50
2021/04/20 10:26:21;;;;;;;6.25;4.40;;;22.20;45.60;;;;;;5032830;28;20568;-51
2021/04/20 10:29:10;;;;;;;8.55;5.10;;;21.90;46.90;;;;;;5032978;28;20037;-52
2021/04/20 10:31:53;;;;;;;8.82;4.78;;;21.60;46.70;;;;;;5032798;28;20026;-47
2021/04/20 10:34:19;;;;;;;11.20;4.90;;;21.40;47.00;;;;;;5032520;28;20029;-49
2021/04/20 10:36:53;;;;;;;6.50;4.53;;;21.20;47.40;;;;;;5031922;28;20101;-50
2021/04/20 10:39:22;;;;;;;7.88;4.63;;;21.00;48.10;;;;;;5032720;28;20097;-49
2021/04/20 10:41:48;;;;;;;13.88;7.15;;;20.80;48.30;;;;;;5032632;28;20099;-49
2021/04/20 10:44:16;;;;;;;10.65;6.13;;;20.70;48.50;;;;;;5042176;28;20112;-49
2021/04/20 10:46:44;;;;;;;10.90;5.65;;;20.50;48.80;;;;;;5052604;28;20063;-53
2021/04/20 10:49:16;;;;;;;8.48;5.00;;;20.30;49.10;;;;;;5052259;28;20021;-49
2021/04/20 10:51:43;;;;;;;10.60;5.40;;;20.20;49.50;;;;;;5040176;28;20057;-49
2021/04/20 10:54:10;;;;;;;10.90;6.40;;;20.10;50.30;;;;;;5032459;28;20452;-48
2021/04/20 10:56:37;;;;;;;10.10;5.60;;;19.80;50.40;;;;;;5032705;28;20025;-48
2021/04/20 10:59:08;;;;;;;10.18;5.55;;;19.70;50.20;;;;;;5032256;28;20025;-47
2021/04/20 11:01:35;;;;;;;10.95;6.10;;;19.60;50.70;;;;;;5032364;28;20037;-51
2021/04/20 11:04:04;;;;;;;12.40;5.70;;;19.50;50.70;;;;;;5032414;28;20030;-55
2021/04/20 11:07:07;;;;;;;11.02;5.70;;;19.50;50.90;;;;;;5031492;28;20029;-52
2021/04/20 11:09:34;;;;;;;9.73;5.57;;;19.50;52.00;;;;;;5032417;28;20109;-53
2021/04/20 11:12:11;;;;;;;10.05;5.65;;;19.40;51.20;;;;;;5032116;28;20033;-51
2021/04/20 11:14:38;;;;;;;10.70;5.82;;;19.30;51.90;;;;;;5032326;28;20078;-50
2021/04/20 11:17:07;;;;;;;10.48;5.30;;;19.20;51.40;;;;;;5032307;28;20053;-52
2021/04/20 11:19:40;;;;;;;10.85;4.90;;;19.10;51.80;;;;;;5032265;28;20028;-52
2021/04/20 11:22:06;;;;;;;8.02;4.68;;;19.10;52.90;;;;;;5031270;28;20021;-53
2021/04/20 11:24:36;;;;;;;8.70;5.65;;;19.10;52.30;;;;;;5032035;28;20105;-50
2021/04/20 11:27:09;;;;;;;13.25;6.50;;;19.10;52.40;;;;;;5034538;28;20028;-47
2021/04/20 11:30:10;;;;;;;11.07;6.28;;;19.10;52.70;;;;;;5036277;28;20021;-49
2021/04/20 11:32:45;;;;;;;11.15;5.88;;;18.90;53.20;;;;;;5035403;28;20095;-53
2021/04/20 11:35:14;;;;;;;11.65;5.85;;;18.70;53.00;;;;;;5036052;28;20018;-57
2021/04/20 11:37:40;;;;;;;9.38;5.13;;;18.70;53.30;;;;;;5034957;28;20033;-51
2021/04/20 11:40:09;;;;;;;15.85;6.95;;;18.80;53.20;;;;;;5035958;28;20021;-49
2021/04/20 11:42:43;;;;;;;14.02;6.65;;;18.80;53.20;;;;;;5036151;28;20109;-49
2021/04/20 11:45:19;;;;;;;9.25;5.88;;;18.80;53.90;;;;;;5052772;28;20029;-50
2021/04/20 11:48:32;;;;;;;14.27;6.45;;;18.80;54.00;;;;;;5055924;28;20464;-52
2021/04/20 11:51:01;;;;;;;11.77;5.80;;;18.80;54.20;;;;;;4993405;28;20034;-49
2021/04/20 11:53:29;;;;;;;11.23;5.22;;;18.80;53.50;;;;;;4994198;28;20058;-51
2021/04/20 11:56:01;;;;;;;10.70;5.38;;;18.70;53.50;;;;;;5028353;28;20071;-49
2021/04/20 11:58:41;;;;;;;8.88;5.32;;;18.60;54.00;;;;;;5055572;28;20074;-47
2021/04/20 12:01:21;;;;;;;18.27;9.05;;;18.60;54.10;;;;;;5055561;28;20044;-50
2021/04/20 12:03:59;;;;;;;17.38;8.52;;;18.50;54.40;;;;;;5055519;28;20522;-52
2021/04/20 12:06:36;;;;;;;11.57;7.03;;;18.30;55.10;;;;;;5054317;28;20523;-48
2021/04/20 12:09:02;;;;;;;12.07;6.43;;;18.20;55.10;;;;;;5055448;28;20520;-50
2021/04/20 12:11:30;;;;;;;10.10;5.47;;;18.20;55.10;;;;;;5055411;28;20112;-50
2021/04/20 12:13:59;;;;;;;12.35;6.28;;;18.30;55.30;;;;;;5055322;28;20108;-50
2021/04/20 12:16:30;;;;;;;10.20;5.82;;;18.40;54.90;;;;;;5055312;28;20605;-50
2021/04/20 12:18:56;;;;;;;10.77;5.35;;;18.40;54.90;;;;;;5055096;28;20071;-50
2021/04/20 12:21:25;;;;;;;9.57;6.10;;;18.50;54.80;;;;;;5053024;28;20024;-49
2021/04/20 12:23:54;;;;;;;15.38;7.65;;;18.60;54.70;;;;;;5054995;28;20052;-49
2021/04/20 12:26:20;;;;;;;11.07;7.13;;;18.60;55.10;;;;;;5055088;28;20448;-50
2021/04/20 12:28:50;;;;;;;10.65;6.40;;;18.40;55.10;;;;;;5055097;28;20033;-48
2021/04/20 12:31:17;;;;;;;9.50;5.72;;;18.40;55.20;;;;;;5054743;28;20032;-47
2021/04/20 12:33:46;;;;;;;11.25;5.55;;;18.40;55.30;;;;;;5054925;28;20021;-49
2021/04/20 12:36:27;;;;;;;10.68;7.00;;;18.50;55.20;;;;;;5054049;28;20053;-51
2021/04/20 12:38:55;;;;;;;10.15;5.43;;;18.40;55.20;;;;;;5054006;28;20032;-51
2021/04/20 12:41:21;;;;;;;11.70;5.93;;;18.40;55.00;;;;;;5054697;28;20056;-52
2021/04/20 12:43:51;;;;;;;21.17;7.70;;;18.40;55.20;;;;;;5054504;28;20032;-48
2021/04/20 12:46:23;;;;;;;11.50;5.68;;;18.40;55.30;;;;;;5054672;28;20025;-54
2021/04/20 12:48:49;;;;;;;23.83;7.25;;;18.50;55.00;;;;;;5054687;28;20071;-53
2021/04/20 12:51:18;;;;;;;9.15;5.32;;;18.50;55.30;;;;;;5046130;28;20563;-47
2021/04/20 12:53:47;;;;;;;13.85;5.32;;;18.60;55.40;;;;;;5034483;28;20021;-49
2021/04/20 12:56:26;;;;;;;13.02;6.70;;;18.60;55.00;;;;;;5034516;28;20056;-48
2021/04/20 12:58:53;;;;;;;20.25;7.15;;;18.70;55.20;;;;;;5034528;28;20025;-47
2021/04/20 13:01:22;;;;;;;42.22;10.25;;;18.80;54.70;;;;;;5030725;28;20028;-51
2021/04/20 13:03:51;;;;;;;268.00;34.28;;;18.90;54.70;;;;;;5034386;28;20503;-48
2021/04/20 13:06:20;;;;;;;17.05;6.10;;;19.00;54.60;;;;;;5033317;28;20124;-53
2021/04/20 13:08:47;;;;;;;39.88;9.30;;;19.10;54.40;;;;;;5033112;28;20365;-50
2021/04/20 13:11:23;;;;;;;13.77;6.45;;;19.20;54.30;;;;;;5034208;28;20029;-49
2021/04/20 13:13:52;;;;;;;12.38;6.40;;;19.20;53.80;;;;;;5051231;28;20417;-50